TimeEDT,TemperatureF,Dew PointF,Humidity,Sea Level PressureIn,VisibilityMPH,Wind Direction,Wind SpeedMPH,Gust SpeedMPH,PrecipitationIn,Events,Conditions,WindDirDegrees,DateUTC
12:54 AM,57.9,55.9,93,30.08,10.0,Calm,Calm,-,N/A,,Mostly Cloudy,0,2013-10-16 04:54:00
1:54 AM,57.9,57.0,97,30.08,10.0,Calm,Calm,-,N/A,,Overcast,0,2013-10-16 05:54:00
2:15 AM,57.2,55.4,94,30.09,10.0,Calm,Calm,-,N/A,,Overcast,0,2013-10-16 06:15:00
2:54 AM,57.0,55.9,96,30.06,6.0,NNW,3.5,-,N/A,,Overcast,340,2013-10-16 06:54:00
3:17 AM,57.2,57.2,100,30.06,2.5,Calm,Calm,-,N/A,,Overcast,0,2013-10-16 07:17:00
3:24 AM,57.2,57.2,100,30.07,3.0,WNW,3.5,-,N/A,,Overcast,300,2013-10-16 07:24:00
3:45 AM,57.2,55.4,94,30.07,2.5,North,3.5,-,N/A,,Overcast,350,2013-10-16 07:45:00
3:54 AM,57.0,57.0,100,30.07,2.0,North,4.6,-,N/A,,Overcast,360,2013-10-16 07:54:00
4:02 AM,57.2,57.2,100,30.07,1.2,NNE,4.6,-,N/A,,Overcast,30,2013-10-16 08:02:00
4:54 AM,57.0,57.0,100,30.07,1.0,North,5.8,-,N/A,,Mist,10,2013-10-16 08:54:00
5:52 AM,57.2,57.2,100,30.06,3.0,NE,4.6,-,N/A,,Overcast,50,2013-10-16 09:52:00
5:53 AM,57.9,57.9,100,30.06,3.0,NE,4.6,-,N/A,,Overcast,50,2013-10-16 09:53:00
6:02 AM,57.2,57.2,100,30.06,2.5,NE,4.6,-,N/A,,Overcast,40,2013-10-16 10:02:00
6:14 AM,57.2,57.2,100,30.06,1.8,NE,4.6,-,N/A,,Overcast,40,2013-10-16 10:14:00
6:24 AM,57.2,57.2,100,30.06,2.0,NE,4.6,-,N/A,,Overcast,40,2013-10-16 10:24:00
6:38 AM,57.2,57.2,100,30.07,1.8,NE,4.6,-,N/A,,Overcast,50,2013-10-16 10:38:00
6:54 AM,57.9,57.9,100,30.06,1.2,NE,5.8,-,N/A,,Overcast,40,2013-10-16 10:54:00
7:12 AM,57.2,57.2,100,30.07,0.8,NNE,4.6,-,N/A,,Mist,30,2013-10-16 11:12:00
7:32 AM,57.2,57.2,100,30.05,0.2,NE,4.6,-,N/A,Fog,Fog,40,2013-10-16 11:32:00
7:54 AM,57.9,57.9,100,30.05,0.2,ENE,4.6,-,N/A,Fog,Fog,60,2013-10-16 11:54:00
8:01 AM,57.2,57.2,100,30.05,0.5,NE,4.6,-,N/A,Fog,Fog,40,2013-10-16 12:01:00
8:12 AM,57.2,57.2,100,30.05,1.5,NE,4.6,-,N/A,,Overcast,40,2013-10-16 12:12:00
8:52 AM,59.0,59.0,100,30.07,2.0,NNE,4.6,-,N/A,,Overcast,30,2013-10-16 12:52:00
8:54 AM,59.0,59.0,100,30.06,2.0,NNE,4.6,-,N/A,,Overcast,20,2013-10-16 12:54:00
9:06 AM,59.0,59.0,100,30.07,4.0,NNE,4.6,-,N/A,,Overcast,30,2013-10-16 13:06:00
9:54 AM,60.1,59.0,96,30.06,10.0,ENE,3.5,-,N/A,,Overcast,60,2013-10-16 13:54:00
10:54 AM,61.0,59.0,93,30.05,10.0,Calm,Calm,-,N/A,,Overcast,0,2013-10-16 14:54:00
11:13 AM,60.8,57.2,88,30.05,10.0,NNE,4.6,-,N/A,,Overcast,30,2013-10-16 15:13:00
11:54 AM,63.0,59.0,87,30.04,10.0,Calm,Calm,-,N/A,,Overcast,0,2013-10-16 15:54:00
12:05 PM,64.4,59.0,83,30.03,10.0,Calm,Calm,-,N/A,,Mostly Cloudy,0,2013-10-16 16:05:00
12:54 PM,66.9,60.1,79,30.01,10.0,ESE,4.6,-,N/A,,Overcast,110,2013-10-16 16:54:00
1:12 PM,66.2,59.0,78,30.00,10.0,Calm,Calm,-,N/A,,Scattered Clouds,0,2013-10-16 17:12:00
1:54 PM,68.0,60.1,76,29.99,10.0,North,4.6,-,N/A,,Clear,10,2013-10-16 17:54:00
2:54 PM,69.1,60.1,73,29.97,10.0,Calm,Calm,-,N/A,,Clear,0,2013-10-16 18:54:00
3:54 PM,69.1,61.0,75,29.97,10.0,West,6.9,-,N/A,,Clear,280,2013-10-16 19:54:00
4:54 PM,66.9,61.0,81,29.96,10.0,SW,5.8,-,N/A,,Clear,220,2013-10-16 20:54:00
5:54 PM,64.9,60.1,84,29.96,10.0,Calm,Calm,-,N/A,,Clear,0,2013-10-16 21:54:00
6:54 PM,64.0,61.0,90,29.96,10.0,Calm,Calm,-,N/A,,Clear,0,2013-10-16 22:54:00
7:54 PM,62.1,60.1,93,29.95,10.0,SSE,3.5,-,N/A,,Clear,150,2013-10-16 23:54:00
8:47 PM,62.6,60.8,94,29.96,10.0,SE,3.5,-,N/A,,Scattered Clouds,140,2013-10-17 00:47:00
8:54 PM,62.1,60.1,93,29.96,10.0,Calm,Calm,-,N/A,,Mostly Cloudy,0,2013-10-17 00:54:00
9:04 PM,62.6,60.8,94,29.97,10.0,Calm,Calm,-,N/A,,Scattered Clouds,0,2013-10-17 01:04:00
9:47 PM,62.6,60.8,94,29.97,10.0,Calm,Calm,-,0.00,Rain,Light Rain,0,2013-10-17 01:47:00
9:54 PM,62.1,60.1,93,29.97,10.0,SSE,3.5,-,0.00,,Mostly Cloudy,160,2013-10-17 01:54:00
10:33 PM,62.6,60.8,94,29.96,10.0,Calm,Calm,-,N/A,,Scattered Clouds,0,2013-10-17 02:33:00
10:45 PM,62.6,60.8,94,29.96,10.0,Calm,Calm,-,N/A,,Mostly Cloudy,0,2013-10-17 02:45:00
10:54 PM,62.1,61.0,96,29.96,10.0,Calm,Calm,-,N/A,,Mostly Cloudy,0,2013-10-17 02:54:00
11:54 PM,61.0,60.1,97,29.94,9.0,Calm,Calm,-,N/A,,Overcast,0,2013-10-17 03:54:00